sensor_id;sensor_type;location;lat;lon;timestamp;P1;durP1;ratioP1;P2;durP2;ratioP2
55254;SDS011;41118;44.634;11.182;2023-04-03T00:01:36;0.60;;;0.20;;
55254;SDS011;41118;44.634;11.182;2023-04-03T00:04:03;0.50;;;0.10;;
55254;SDS011;41118;44.634;11.182;2023-04-03T00:06:30;1.38;;;0.13;;
55254;SDS011;41118;44.634;11.182;2023-04-03T00:08:56;1.48;;;0.10;;
55254;SDS011;41118;44.634;11.182;2023-04-03T00:11:22;0.55;;;0.15;;
55254;SDS011;41118;44.634;11.182;2023-04-03T00:13:49;0.73;;;0.10;;
55254;SDS011;41118;44.634;11.182;2023-04-03T00:16:15;1.23;;;0.20;;
55254;SDS011;41118;44.634;11.182;2023-04-03T00:18:41;0.68;;;0.10;;
55254;SDS011;41118;44.634;11.182;2023-04-03T00:21:07;0.55;;;0.10;;
55254;SDS011;41118;44.634;11.182;2023-04-03T00:23:33;2.83;;;0.15;;
55254;SDS011;41118;44.634;11.182;2023-04-03T00:26:00;0.57;;;0.10;;
55254;SDS011;41118;44.634;11.182;2023-04-03T00:28:26;0.52;;;0.10;;
55254;SDS011;41118;44.634;11.182;2023-04-03T00:30:52;0.70;;;0.10;;
55254;SDS011;41118;44.634;11.182;2023-04-03T00:33:18;0.98;;;0.17;;
55254;SDS011;41118;44.634;11.182;2023-04-03T00:35:47;0.40;;;0.10;;
55254;SDS011;41118;44.634;11.182;2023-04-03T00:38:13;1.98;;;0.10;;
55254;SDS011;41118;44.634;11.182;2023-04-03T00:40:41;2.60;;;0.10;;
55254;SDS011;41118;44.634;11.182;2023-04-03T00:43:15;0.95;;;0.10;;
55254;SDS011;41118;44.634;11.182;2023-04-03T00:45:42;1.92;;;0.20;;
55254;SDS011;41118;44.634;11.182;2023-04-03T00:48:13;1.58;;;0.20;;
55254;SDS011;41118;44.634;11.182;2023-04-03T00:50:41;0.75;;;0.20;;
55254;SDS011;41118;44.634;11.182;2023-04-03T00:53:09;0.50;;;0.17;;
55254;SDS011;41118;44.634;11.182;2023-04-03T00:55:37;1.85;;;0.20;;
55254;SDS011;41118;44.634;11.182;2023-04-03T00:58:03;1.45;;;0.15;;
55254;SDS011;41118;44.634;11.182;2023-04-03T01:00:30;0.68;;;0.13;;
55254;SDS011;41118;44.634;11.182;2023-04-03T01:02:56;2.60;;;0.20;;
55254;SDS011;41118;44.634;11.182;2023-04-03T01:05:22;1.50;;;0.20;;
55254;SDS011;41118;44.634;11.182;2023-04-03T01:07:49;1.13;;;0.10;;
55254;SDS011;41118;44.634;11.182;2023-04-03T01:10:17;1.40;;;0.10;;
55254;SDS011;41118;44.634;11.182;2023-04-03T01:12:46;0.65;;;0.10;;
55254;SDS011;41118;44.634;11.182;2023-04-03T01:15:14;0.60;;;0.10;;
55254;SDS011;41118;44.634;11.182;2023-04-03T01:17:42;0.50;;;0.10;;
55254;SDS011;41118;44.634;11.182;2023-04-03T01:25:36;0.77;;;0.10;;
55254;SDS011;41118;44.634;11.182;2023-04-03T01:28:04;1.38;;;0.10;;
55254;SDS011;41118;44.634;11.182;2023-04-03T01:30:31;0.50;;;0.10;;
55254;SDS011;41118;44.634;11.182;2023-04-03T01:32:58;1.15;;;0.10;;
55254;SDS011;41118;44.634;11.182;2023-04-03T01:35:24;1.33;;;0.10;;
55254;SDS011;41118;44.634;11.182;2023-04-03T01:37:50;0.88;;;0.13;;
55254;SDS011;41118;44.634;11.182;2023-04-03T01:40:16;0.30;;;0.10;;
55254;SDS011;41118;44.634;11.182;2023-04-03T01:42:42;0.85;;;0.10;;
55254;SDS011;41118;44.634;11.182;2023-04-03T01:45:08;1.55;;;0.10;;
55254;SDS011;41118;44.634;11.182;2023-04-03T01:47:35;0.65;;;0.10;;
55254;SDS011;41118;44.634;11.182;2023-04-03T01:50:02;0.75;;;0.10;;
55254;SDS011;41118;44.634;11.182;2023-04-03T01:52:28;0.43;;;0.10;;
55254;SDS011;41118;44.634;11.182;2023-04-03T01:54:55;0.60;;;0.10;;
55254;SDS011;41118;44.634;11.182;2023-04-03T01:57:21;0.40;;;0.10;;
55254;SDS011;41118;44.634;11.182;2023-04-03T01:59:47;0.45;;;0.10;;
55254;SDS011;41118;44.634;11.182;2023-04-03T02:02:13;1.10;;;0.10;;
55254;SDS011;41118;44.634;11.182;2023-04-03T02:04:39;0.55;;;0.10;;
55254;SDS011;41118;44.634;11.182;2023-04-03T02:07:06;0.60;;;0.10;;
55254;SDS011;41118;44.634;11.182;2023-04-03T02:09:32;1.33;;;0.10;;
55254;SDS011;41118;44.634;11.182;2023-04-03T02:11:58;0.50;;;0.10;;
55254;SDS011;41118;44.634;11.182;2023-04-03T02:14:24;0.50;;;0.10;;
55254;SDS011;41118;44.634;11.182;2023-04-03T02:16:52;0.40;;;0.10;;
55254;SDS011;41118;44.634;11.182;2023-04-03T02:19:18;0.55;;;0.10;;
55254;SDS011;41118;44.634;11.182;2023-04-03T02:21:44;1.02;;;0.10;;
55254;SDS011;41118;44.634;11.182;2023-04-03T02:24:10;0.70;;;0.10;;
55254;SDS011;41118;44.634;11.182;2023-04-03T02:26:36;0.38;;;0.10;;
55254;SDS011;41118;44.634;11.182;2023-04-03T02:29:02;1.70;;;0.10;;
55254;SDS011;41118;44.634;11.182;2023-04-03T02:31:29;0.40;;;0.10;;
55254;SDS011;41118;44.634;11.182;2023-04-03T02:33:55;0.82;;;0.10;;
55254;SDS011;41118;44.634;11.182;2023-04-03T02:36:21;0.60;;;0.15;;
55254;SDS011;41118;44.634;11.182;2023-04-03T02:38:47;2.33;;;0.10;;
55254;SDS011;41118;44.634;11.182;2023-04-03T02:41:13;1.10;;;0.10;;
55254;SDS011;41118;44.634;11.182;2023-04-03T02:43:40;0.80;;;0.17;;
55254;SDS011;41118;44.634;11.182;2023-04-03T02:46:06;3.05;;;0.10;;
55254;SDS011;41118;44.634;11.182;2023-04-03T02:48:32;1.30;;;0.15;;
55254;SDS011;41118;44.634;11.182;2023-04-03T02:50:58;1.10;;;0.10;;
55254;SDS011;41118;44.634;11.182;2023-04-03T02:53:26;0.60;;;0.13;;
55254;SDS011;41118;44.634;11.182;2023-04-03T02:55:52;2.00;;;0.20;;
55254;SDS011;41118;44.634;11.182;2023-04-03T02:58:18;1.23;;;0.10;;
55254;SDS011;41118;44.634;11.182;2023-04-03T03:00:44;0.70;;;0.20;;
55254;SDS011;41118;44.634;11.182;2023-04-03T03:03:10;0.60;;;0.15;;
55254;SDS011;41118;44.634;11.182;2023-04-03T03:05:38;0.98;;;0.20;;
55254;SDS011;41118;44.634;11.182;2023-04-03T03:08:04;5.60;;;0.20;;
55254;SDS011;41118;44.634;11.182;2023-04-03T03:10:31;0.70;;;0.20;;
55254;SDS011;41118;44.634;11.182;2023-04-03T03:12:57;0.68;;;0.10;;
55254;SDS011;41118;44.634;11.182;2023-04-03T03:15:23;2.08;;;0.20;;
55254;SDS011;41118;44.634;11.182;2023-04-03T03:17:49;0.60;;;0.20;;
55254;SDS011;41118;44.634;11.182;2023-04-03T03:20:16;0.80;;;0.20;;
55254;SDS011;41118;44.634;11.182;2023-04-03T03:22:42;0.70;;;0.15;;
55254;SDS011;41118;44.634;11.182;2023-04-03T03:25:08;4.22;;;0.20;;
55254;SDS011;41118;44.634;11.182;2023-04-03T03:27:35;0.70;;;0.20;;
55254;SDS011;41118;44.634;11.182;2023-04-03T03:30:01;1.00;;;0.20;;
55254;SDS011;41118;44.634;11.182;2023-04-03T03:32:27;1.95;;;0.20;;
55254;SDS011;41118;44.634;11.182;2023-04-03T03:34:53;3.70;;;0.20;;
55254;SDS011;41118;44.634;11.182;2023-04-03T03:37:19;0.65;;;0.10;;
55254;SDS011;41118;44.634;11.182;2023-04-03T03:39:45;0.80;;;0.20;;
55254;SDS011;41118;44.634;11.182;2023-04-03T03:42:11;0.93;;;0.20;;
55254;SDS011;41118;44.634;11.182;2023-04-03T03:44:37;1.13;;;0.13;;
55254;SDS011;41118;44.634;11.182;2023-04-03T03:47:03;1.95;;;0.30;;
55254;SDS011;41118;44.634;11.182;2023-04-03T03:49:31;2.30;;;0.30;;
55254;SDS011;41118;44.634;11.182;2023-04-03T03:51:57;0.90;;;0.10;;
55254;SDS011;41118;44.634;11.182;2023-04-03T03:54:23;0.60;;;0.10;;
55254;SDS011;41118;44.634;11.182;2023-04-03T03:56:48;0.95;;;0.20;;
55254;SDS011;41118;44.634;11.182;2023-04-03T03:59:14;2.13;;;0.20;;
55254;SDS011;41118;44.634;11.182;2023-04-03T04:01:41;3.38;;;0.20;;
55254;SDS011;41118;44.634;11.182;2023-04-03T04:04:07;0.57;;;0.15;;
55254;SDS011;41118;44.634;11.182;2023-04-03T04:06:33;0.98;;;0.20;;
55254;SDS011;41118;44.634;11.182;2023-04-03T04:08:59;1.77;;;0.65;;
55254;SDS011;41118;44.634;11.182;2023-04-03T04:11:25;0.50;;;0.10;;
55254;SDS011;41118;44.634;11.182;2023-04-03T04:13:52;0.60;;;0.10;;
55254;SDS011;41118;44.634;11.182;2023-04-03T04:16:19;0.98;;;0.10;;
55254;SDS011;41118;44.634;11.182;2023-04-03T04:18:45;0.60;;;0.10;;
55254;SDS011;41118;44.634;11.182;2023-04-03T04:21:11;0.73;;;0.10;;
55254;SDS011;41118;44.634;11.182;2023-04-03T04:23:37;4.75;;;0.30;;
55254;SDS011;41118;44.634;11.182;2023-04-03T04:26:03;1.50;;;0.17;;
55254;SDS011;41118;44.634;11.182;2023-04-03T04:28:29;1.42;;;0.20;;
55254;SDS011;41118;44.634;11.182;2023-04-03T04:30:55;0.60;;;0.10;;
55254;SDS011;41118;44.634;11.182;2023-04-03T04:33:22;1.20;;;0.20;;
55254;SDS011;41118;44.634;11.182;2023-04-03T04:35:48;3.75;;;0.20;;
55254;SDS011;41118;44.634;11.182;2023-04-03T04:38:14;0.95;;;0.20;;
55254;SDS011;41118;44.634;11.182;2023-04-03T04:40:41;0.90;;;0.20;;
55254;SDS011;41118;44.634;11.182;2023-04-03T04:43:07;1.08;;;0.30;;
55254;SDS011;41118;44.634;11.182;2023-04-03T04:45:33;2.42;;;0.20;;
55254;SDS011;41118;44.634;11.182;2023-04-03T04:47:59;2.28;;;0.20;;
55254;SDS011;41118;44.634;11.182;2023-04-03T04:50:25;2.17;;;0.50;;
55254;SDS011;41118;44.634;11.182;2023-04-03T04:52:51;2.15;;;0.17;;
55254;SDS011;41118;44.634;11.182;2023-04-03T04:55:19;1.48;;;0.22;;
55254;SDS011;41118;44.634;11.182;2023-04-03T04:57:45;4.75;;;0.98;;
55254;SDS011;41118;44.634;11.182;2023-04-03T05:00:12;2.78;;;0.30;;
55254;SDS011;41118;44.634;11.182;2023-04-03T05:02:38;5.13;;;0.30;;
55254;SDS011;41118;44.634;11.182;2023-04-03T05:05:04;4.63;;;0.40;;
55254;SDS011;41118;44.634;11.182;2023-04-03T05:07:30;2.30;;;0.30;;
55254;SDS011;41118;44.634;11.182;2023-04-03T05:09:56;5.25;;;0.38;;
55254;SDS011;41118;44.634;11.182;2023-04-03T05:12:22;4.70;;;0.80;;
55254;SDS011;41118;44.634;11.182;2023-04-03T05:14:48;1.10;;;0.30;;
55254;SDS011;41118;44.634;11.182;2023-04-03T05:17:14;5.53;;;0.30;;
55254;SDS011;41118;44.634;11.182;2023-04-03T05:19:40;0.77;;;0.20;;
55254;SDS011;41118;44.634;11.182;2023-04-03T05:22:06;1.60;;;0.20;;
55254;SDS011;41118;44.634;11.182;2023-04-03T05:24:33;0.60;;;0.20;;
55254;SDS011;41118;44.634;11.182;2023-04-03T05:26:58;1.83;;;0.17;;
55254;SDS011;41118;44.634;11.182;2023-04-03T05:29:25;0.50;;;0.20;;
55254;SDS011;41118;44.634;11.182;2023-04-03T05:31:51;1.00;;;0.20;;
55254;SDS011;41118;44.634;11.182;2023-04-03T05:34:17;0.85;;;0.20;;
55254;SDS011;41118;44.634;11.182;2023-04-03T05:36:44;0.50;;;0.20;;
55254;SDS011;41118;44.634;11.182;2023-04-03T05:39:10;0.80;;;0.20;;
55254;SDS011;41118;44.634;11.182;2023-04-03T05:41:36;0.73;;;0.20;;
55254;SDS011;41118;44.634;11.182;2023-04-03T05:44:02;3.55;;;0.20;;
55254;SDS011;41118;44.634;11.182;2023-04-03T05:46:28;2.15;;;0.20;;
55254;SDS011;41118;44.634;11.182;2023-04-03T05:48:54;3.58;;;0.30;;
55254;SDS011;41118;44.634;11.182;2023-04-03T05:51:24;6.63;;;0.73;;
55254;SDS011;41118;44.634;11.182;2023-04-03T05:53:52;1.17;;;0.20;;
55254;SDS011;41118;44.634;11.182;2023-04-03T05:56:20;7.13;;;0.75;;
55254;SDS011;41118;44.634;11.182;2023-04-03T05:58:46;3.70;;;0.22;;
55254;SDS011;41118;44.634;11.182;2023-04-03T06:01:12;2.15;;;0.22;;
55254;SDS011;41118;44.634;11.182;2023-04-03T06:03:39;3.92;;;0.20;;
55254;SDS011;41118;44.634;11.182;2023-04-03T06:06:05;0.75;;;0.20;;
55254;SDS011;41118;44.634;11.182;2023-04-03T06:08:33;1.40;;;0.30;;
55254;SDS011;41118;44.634;11.182;2023-04-03T06:11:00;2.58;;;0.10;;
55254;SDS011;41118;44.634;11.182;2023-04-03T06:13:26;2.88;;;0.22;;
55254;SDS011;41118;44.634;11.182;2023-04-03T06:15:53;0.85;;;0.20;;
55254;SDS011;41118;44.634;11.182;2023-04-03T06:18:20;0.77;;;0.20;;
55254;SDS011;41118;44.634;11.182;2023-04-03T06:20:46;2.47;;;0.20;;
55254;SDS011;41118;44.634;11.182;2023-04-03T06:23:12;1.48;;;0.25;;
55254;SDS011;41118;44.634;11.182;2023-04-03T06:25:38;4.40;;;0.30;;
55254;SDS011;41118;44.634;11.182;2023-04-03T06:28:04;1.50;;;0.30;;
55254;SDS011;41118;44.634;11.182;2023-04-03T06:30:30;1.00;;;0.40;;
55254;SDS011;41118;44.634;11.182;2023-04-03T06:32:56;1.42;;;0.30;;
55254;SDS011;41118;44.634;11.182;2023-04-03T06:35:24;2.70;;;0.40;;
55254;SDS011;41118;44.634;11.182;2023-04-03T06:37:51;1.38;;;0.38;;
55254;SDS011;41118;44.634;11.182;2023-04-03T06:40:19;1.42;;;0.40;;
55254;SDS011;41118;44.634;11.182;2023-04-03T06:42:46;2.45;;;0.30;;
55254;SDS011;41118;44.634;11.182;2023-04-03T06:45:12;0.98;;;0.30;;
55254;SDS011;41118;44.634;11.182;2023-04-03T06:47:38;2.75;;;0.60;;
55254;SDS011;41118;44.634;11.182;2023-04-03T06:50:05;4.20;;;0.40;;
55254;SDS011;41118;44.634;11.182;2023-04-03T06:52:31;2.85;;;0.68;;
55254;SDS011;41118;44.634;11.182;2023-04-03T06:54:57;3.92;;;0.50;;
55254;SDS011;41118;44.634;11.182;2023-04-03T06:57:24;4.10;;;0.80;;
55254;SDS011;41118;44.634;11.182;2023-04-03T06:59:51;3.67;;;0.40;;
55254;SDS011;41118;44.634;11.182;2023-04-03T07:02:17;6.55;;;0.30;;
55254;SDS011;41118;44.634;11.182;2023-04-03T07:04:43;1.40;;;0.40;;
55254;SDS011;41118;44.634;11.182;2023-04-03T07:07:09;3.42;;;0.40;;
55254;SDS011;41118;44.634;11.182;2023-04-03T07:09:35;3.45;;;0.50;;
55254;SDS011;41118;44.634;11.182;2023-04-03T07:12:01;1.40;;;0.40;;
55254;SDS011;41118;44.634;11.182;2023-04-03T07:14:27;4.80;;;0.70;;
55254;SDS011;41118;44.634;11.182;2023-04-03T07:16:53;3.00;;;0.40;;
55254;SDS011;41118;44.634;11.182;2023-04-03T07:19:19;2.85;;;0.38;;
55254;SDS011;41118;44.634;11.182;2023-04-03T07:21:46;3.75;;;0.40;;
55254;SDS011;41118;44.634;11.182;2023-04-03T07:24:12;4.25;;;0.40;;
55254;SDS011;41118;44.634;11.182;2023-04-03T07:26:38;5.28;;;0.50;;
55254;SDS011;41118;44.634;11.182;2023-04-03T07:29:04;1.75;;;0.30;;
55254;SDS011;41118;44.634;11.182;2023-04-03T07:31:30;1.30;;;0.30;;
55254;SDS011;41118;44.634;11.182;2023-04-03T07:33:56;5.35;;;0.70;;
55254;SDS011;41118;44.634;11.182;2023-04-03T07:36:22;2.78;;;0.40;;
55254;SDS011;41118;44.634;11.182;2023-04-03T07:38:49;4.82;;;0.60;;
55254;SDS011;41118;44.634;11.182;2023-04-03T07:41:16;6.45;;;0.60;;
55254;SDS011;41118;44.634;11.182;2023-04-03T07:43:43;4.60;;;0.85;;
55254;SDS011;41118;44.634;11.182;2023-04-03T07:46:10;2.67;;;1.05;;
55254;SDS011;41118;44.634;11.182;2023-04-03T07:48:36;2.92;;;0.60;;
55254;SDS011;41118;44.634;11.182;2023-04-03T07:51:02;1.92;;;0.60;;
55254;SDS011;41118;44.634;11.182;2023-04-03T07:53:29;1.88;;;0.50;;
55254;SDS011;41118;44.634;11.182;2023-04-03T07:55:56;4.60;;;0.60;;
55254;SDS011;41118;44.634;11.182;2023-04-03T07:58:22;4.22;;;1.00;;
55254;SDS011;41118;44.634;11.182;2023-04-03T08:00:49;3.22;;;0.60;;
55254;SDS011;41118;44.634;11.182;2023-04-03T08:03:15;3.60;;;0.70;;
55254;SDS011;41118;44.634;11.182;2023-04-03T08:05:43;3.67;;;0.50;;
55254;SDS011;41118;44.634;11.182;2023-04-03T08:08:11;2.20;;;0.50;;
55254;SDS011;41118;44.634;11.182;2023-04-03T08:10:37;3.00;;;0.75;;
55254;SDS011;41118;44.634;11.182;2023-04-03T08:13:04;1.92;;;0.77;;
55254;SDS011;41118;44.634;11.182;2023-04-03T08:15:30;3.80;;;0.73;;
55254;SDS011;41118;44.634;11.182;2023-04-03T08:17:57;4.88;;;0.50;;
55254;SDS011;41118;44.634;11.182;2023-04-03T08:20:23;2.72;;;0.60;;
55254;SDS011;41118;44.634;11.182;2023-04-03T08:22:50;1.73;;;0.50;;
55254;SDS011;41118;44.634;11.182;2023-04-03T08:25:16;2.65;;;0.50;;
55254;SDS011;41118;44.634;11.182;2023-04-03T08:27:43;6.57;;;0.47;;
55254;SDS011;41118;44.634;11.182;2023-04-03T08:30:10;1.73;;;0.50;;
55254;SDS011;41118;44.634;11.182;2023-04-03T08:32:36;5.00;;;0.60;;
55254;SDS011;41118;44.634;11.182;2023-04-03T08:35:04;4.25;;;0.30;;
55254;SDS011;41118;44.634;11.182;2023-04-03T08:37:30;1.67;;;0.30;;
55254;SDS011;41118;44.634;11.182;2023-04-03T08:39:56;3.15;;;0.60;;
55254;SDS011;41118;44.634;11.182;2023-04-03T08:45:14;4.95;;;0.40;;
55254;SDS011;41118;44.634;11.182;2023-04-03T08:50:26;3.58;;;0.93;;
55254;SDS011;41118;44.634;11.182;2023-04-03T08:52:58;1.65;;;0.40;;
55254;SDS011;41118;44.634;11.182;2023-04-03T08:57:51;1.10;;;0.20;;
55254;SDS011;41118;44.634;11.182;2023-04-03T09:00:22;0.93;;;0.30;;
55254;SDS011;41118;44.634;11.182;2023-04-03T09:02:50;2.40;;;0.20;;
55254;SDS011;41118;44.634;11.182;2023-04-03T09:05:18;0.90;;;0.20;;
55254;SDS011;41118;44.634;11.182;2023-04-03T09:07:49;1.48;;;0.20;;
55254;SDS011;41118;44.634;11.182;2023-04-03T09:10:18;3.97;;;0.28;;
55254;SDS011;41118;44.634;11.182;2023-04-03T09:12:49;1.15;;;0.30;;
55254;SDS011;41118;44.634;11.182;2023-04-03T09:15:18;1.45;;;0.20;;
55254;SDS011;41118;44.634;11.182;2023-04-03T09:25:44;1.35;;;0.20;;
55254;SDS011;41118;44.634;11.182;2023-04-03T09:28:11;1.60;;;0.30;;
55254;SDS011;41118;44.634;11.182;2023-04-03T09:30:37;3.08;;;0.70;;
55254;SDS011;41118;44.634;11.182;2023-04-03T09:33:04;2.22;;;0.30;;
55254;SDS011;41118;44.634;11.182;2023-04-03T09:35:32;1.35;;;0.20;;
55254;SDS011;41118;44.634;11.182;2023-04-03T09:40:40;0.70;;;0.20;;
55254;SDS011;41118;44.634;11.182;2023-04-03T09:45:45;1.73;;;0.20;;
55254;SDS011;41118;44.634;11.182;2023-04-03T09:53:28;3.83;;;0.10;;
55254;SDS011;41118;44.634;11.182;2023-04-03T09:55:55;1.17;;;0.10;;
55254;SDS011;41118;44.634;11.182;2023-04-03T09:58:28;2.53;;;0.20;;
55254;SDS011;41118;44.634;11.182;2023-04-03T10:03:25;3.50;;;0.20;;
55254;SDS011;41118;44.634;11.182;2023-04-03T10:05:51;1.40;;;0.20;;
55254;SDS011;41118;44.634;11.182;2023-04-03T10:08:21;1.00;;;0.20;;
55254;SDS011;41118;44.634;11.182;2023-04-03T10:10:49;1.70;;;0.20;;
55254;SDS011;41118;44.634;11.182;2023-04-03T10:13:30;2.38;;;0.20;;
55254;SDS011;41118;44.634;11.182;2023-04-03T10:15:59;2.45;;;0.20;;
55254;SDS011;41118;44.634;11.182;2023-04-03T10:23:57;2.33;;;0.40;;
55254;SDS011;41118;44.634;11.182;2023-04-03T10:27:00;1.30;;;0.30;;
55254;SDS011;41118;44.634;11.182;2023-04-03T10:34:33;3.88;;;0.30;;
55254;SDS011;41118;44.634;11.182;2023-04-03T10:47:30;2.47;;;0.70;;
55254;SDS011;41118;44.634;11.182;2023-04-03T10:52:48;2.95;;;0.40;;
55254;SDS011;41118;44.634;11.182;2023-04-03T10:57:57;5.28;;;0.50;;
55254;SDS011;41118;44.634;11.182;2023-04-03T11:00:40;2.92;;;0.30;;
55254;SDS011;41118;44.634;11.182;2023-04-03T11:03:41;0.90;;;0.20;;
55254;SDS011;41118;44.634;11.182;2023-04-03T11:06:01;1.08;;;0.22;;
55254;SDS011;41118;44.634;11.182;2023-04-03T11:11:00;0.60;;;0.20;;
55254;SDS011;41118;44.634;11.182;2023-04-03T11:13:30;1.27;;;0.20;;
55254;SDS011;41118;44.634;11.182;2023-04-03T11:15:59;2.47;;;0.17;;
55254;SDS011;41118;44.634;11.182;2023-04-03T11:21:02;0.60;;;0.10;;
55254;SDS011;41118;44.634;11.182;2023-04-03T11:23:36;1.20;;;0.20;;
55254;SDS011;41118;44.634;11.182;2023-04-03T11:28:35;1.42;;;0.50;;
55254;SDS011;41118;44.634;11.182;2023-04-03T11:38:43;0.60;;;0.10;;
55254;SDS011;41118;44.634;11.182;2023-04-03T11:41:11;0.90;;;0.20;;
55254;SDS011;41118;44.634;11.182;2023-04-03T11:43:58;0.55;;;0.10;;
55254;SDS011;41118;44.634;11.182;2023-04-03T11:47:10;1.95;;;0.10;;
55254;SDS011;41118;44.634;11.182;2023-04-03T11:51:56;0.47;;;0.10;;
55254;SDS011;41118;44.634;11.182;2023-04-03T11:54:35;0.43;;;0.03;;
55254;SDS011;41118;44.634;11.182;2023-04-03T11:57:23;4.55;;;0.10;;
55254;SDS011;41118;44.634;11.182;2023-04-03T11:59:48;0.95;;;0.10;;
55254;SDS011;41118;44.634;11.182;2023-04-03T12:02:36;1.02;;;0.10;;
55254;SDS011;41118;44.634;11.182;2023-04-03T12:08:15;5.18;;;0.00;;
55254;SDS011;41118;44.634;11.182;2023-04-03T12:10:42;0.25;;;0.00;;
55254;SDS011;41118;44.634;11.182;2023-04-03T12:13:14;2.80;;;0.00;;
55254;SDS011;41118;44.634;11.182;2023-04-03T12:15:44;1.50;;;0.00;;
55254;SDS011;41118;44.634;11.182;2023-04-03T12:18:31;0.25;;;0.00;;
55254;SDS011;41118;44.634;11.182;2023-04-03T12:20:58;0.88;;;0.10;;
55254;SDS011;41118;44.634;11.182;2023-04-03T12:23:25;0.80;;;0.00;;
55254;SDS011;41118;44.634;11.182;2023-04-03T12:25:51;0.10;;;0.00;;
55254;SDS011;41118;44.634;11.182;2023-04-03T12:28:17;0.40;;;0.00;;
55254;SDS011;41118;44.634;11.182;2023-04-03T12:30:44;1.20;;;0.00;;
55254;SDS011;41118;44.634;11.182;2023-04-03T12:35:54;0.30;;;0.00;;
55254;SDS011;41118;44.634;11.182;2023-04-03T12:46:19;0.13;;;0.00;;
55254;SDS011;41118;44.634;11.182;2023-04-03T12:48:57;2.88;;;0.00;;
55254;SDS011;41118;44.634;11.182;2023-04-03T12:53:55;0.25;;;0.00;;
55254;SDS011;41118;44.634;11.182;2023-04-03T12:56:25;0.10;;;0.00;;
55254;SDS011;41118;44.634;11.182;2023-04-03T12:58:51;3.42;;;0.20;;
55254;SDS011;41118;44.634;11.182;2023-04-03T13:01:20;0.10;;;0.00;;
55254;SDS011;41118;44.634;11.182;2023-04-03T13:03:48;0.10;;;0.00;;
55254;SDS011;41118;44.634;11.182;2023-04-03T13:06:19;0.10;;;0.00;;
55254;SDS011;41118;44.634;11.182;2023-04-03T13:08:49;0.45;;;0.00;;
55254;SDS011;41118;44.634;11.182;2023-04-03T13:11:15;0.35;;;0.05;;
55254;SDS011;41118;44.634;11.182;2023-04-03T13:13:53;3.50;;;0.10;;
55254;SDS011;41118;44.634;11.182;2023-04-03T13:16:19;0.45;;;0.00;;
55254;SDS011;41118;44.634;11.182;2023-04-03T13:18:49;0.90;;;0.00;;
55254;SDS011;41118;44.634;11.182;2023-04-03T13:21:17;0.20;;;0.00;;
55254;SDS011;41118;44.634;11.182;2023-04-03T13:23:45;1.17;;;0.10;;
55254;SDS011;41118;44.634;11.182;2023-04-03T13:26:12;2.92;;;0.10;;
55254;SDS011;41118;44.634;11.182;2023-04-03T13:28:39;0.60;;;0.10;;
55254;SDS011;41118;44.634;11.182;2023-04-03T13:31:17;0.93;;;0.10;;
55254;SDS011;41118;44.634;11.182;2023-04-03T13:34:06;0.43;;;0.10;;
55254;SDS011;41118;44.634;11.182;2023-04-03T13:36:34;0.40;;;0.10;;
55254;SDS011;41118;44.634;11.182;2023-04-03T13:39:23;1.33;;;0.20;;
55254;SDS011;41118;44.634;11.182;2023-04-03T13:41:48;0.63;;;0.10;;
55254;SDS011;41118;44.634;11.182;2023-04-03T13:46:57;1.02;;;0.15;;
55254;SDS011;41118;44.634;11.182;2023-04-03T13:49:37;1.65;;;0.20;;
55254;SDS011;41118;44.634;11.182;2023-04-03T13:52:20;2.60;;;0.20;;
55254;SDS011;41118;44.634;11.182;2023-04-03T13:54:47;0.93;;;0.40;;
55254;SDS011;41118;44.634;11.182;2023-04-03T13:57:17;0.65;;;0.20;;
55254;SDS011;41118;44.634;11.182;2023-04-03T13:59:44;2.38;;;0.30;;
55254;SDS011;41118;44.634;11.182;2023-04-03T14:02:13;2.85;;;0.38;;
55254;SDS011;41118;44.634;11.182;2023-04-03T14:04:47;1.45;;;0.32;;
55254;SDS011;41118;44.634;11.182;2023-04-03T14:07:14;1.27;;;0.63;;
55254;SDS011;41118;44.634;11.182;2023-04-03T14:09:41;0.73;;;0.30;;
55254;SDS011;41118;44.634;11.182;2023-04-03T14:12:11;1.20;;;0.30;;
55254;SDS011;41118;44.634;11.182;2023-04-03T14:14:39;3.08;;;0.45;;
55254;SDS011;41118;44.634;11.182;2023-04-03T14:17:22;0.43;;;0.30;;
55254;SDS011;41118;44.634;11.182;2023-04-03T14:19:49;0.68;;;0.17;;
55254;SDS011;41118;44.634;11.182;2023-04-03T14:22:20;1.20;;;0.47;;
55254;SDS011;41118;44.634;11.182;2023-04-03T14:24:47;0.40;;;0.10;;
55254;SDS011;41118;44.634;11.182;2023-04-03T14:27:36;3.08;;;0.10;;
55254;SDS011;41118;44.634;11.182;2023-04-03T14:30:00;0.50;;;0.13;;
55254;SDS011;41118;44.634;11.182;2023-04-03T14:32:28;0.30;;;0.10;;
55254;SDS011;41118;44.634;11.182;2023-04-03T14:34:54;0.32;;;0.10;;
55254;SDS011;41118;44.634;11.182;2023-04-03T14:37:23;0.30;;;0.00;;
55254;SDS011;41118;44.634;11.182;2023-04-03T14:39:51;0.77;;;0.10;;
55254;SDS011;41118;44.634;11.182;2023-04-03T14:42:28;0.30;;;0.00;;
55254;SDS011;41118;44.634;11.182;2023-04-03T14:44:55;1.27;;;0.00;;
55254;SDS011;41118;44.634;11.182;2023-04-03T14:47:26;0.40;;;0.10;;
55254;SDS011;41118;44.634;11.182;2023-04-03T14:49:52;3.47;;;0.00;;
55254;SDS011;41118;44.634;11.182;2023-04-03T14:52:20;0.82;;;0.00;;
55254;SDS011;41118;44.634;11.182;2023-04-03T14:54:48;0.00;;;0.00;;
55254;SDS011;41118;44.634;11.182;2023-04-03T14:57:15;1.65;;;0.00;;
55254;SDS011;41118;44.634;11.182;2023-04-03T14:59:41;0.20;;;0.05;;
55254;SDS011;41118;44.634;11.182;2023-04-03T15:02:16;0.10;;;0.00;;
55254;SDS011;41118;44.634;11.182;2023-04-03T15:04:48;0.30;;;0.00;;
55254;SDS011;41118;44.634;11.182;2023-04-03T15:07:14;0.10;;;0.00;;
55254;SDS011;41118;44.634;11.182;2023-04-03T15:09:41;0.28;;;0.00;;
55254;SDS011;41118;44.634;11.182;2023-04-03T15:12:08;1.20;;;0.00;;
55254;SDS011;41118;44.634;11.182;2023-04-03T15:14:34;2.05;;;0.05;;
55254;SDS011;41118;44.634;11.182;2023-04-03T15:17:00;1.10;;;0.00;;
55254;SDS011;41118;44.634;11.182;2023-04-03T15:19:27;0.20;;;0.00;;
55254;SDS011;41118;44.634;11.182;2023-04-03T15:21:54;0.65;;;0.00;;
55254;SDS011;41118;44.634;11.182;2023-04-03T15:24:20;1.85;;;0.08;;
55254;SDS011;41118;44.634;11.182;2023-04-03T15:26:46;1.02;;;0.00;;
55254;SDS011;41118;44.634;11.182;2023-04-03T15:29:12;0.57;;;0.00;;
55254;SDS011;41118;44.634;11.182;2023-04-03T15:31:38;3.05;;;0.00;;
55254;SDS011;41118;44.634;11.182;2023-04-03T15:34:04;0.47;;;0.00;;
55254;SDS011;41118;44.634;11.182;2023-04-03T15:36:30;1.25;;;0.00;;
55254;SDS011;41118;44.634;11.182;2023-04-03T15:38:56;0.22;;;0.00;;
55254;SDS011;41118;44.634;11.182;2023-04-03T15:41:22;0.20;;;0.00;;
55254;SDS011;41118;44.634;11.182;2023-04-03T15:43:48;0.30;;;0.00;;
55254;SDS011;41118;44.634;11.182;2023-04-03T15:46:15;1.27;;;0.00;;
55254;SDS011;41118;44.634;11.182;2023-04-03T15:48:40;1.40;;;0.00;;
55254;SDS011;41118;44.634;11.182;2023-04-03T15:51:07;0.17;;;0.00;;
55254;SDS011;41118;44.634;11.182;2023-04-03T15:53:33;1.65;;;0.10;;
55254;SDS011;41118;44.634;11.182;2023-04-03T15:55:59;2.47;;;0.00;;
55254;SDS011;41118;44.634;11.182;2023-04-03T15:58:25;2.30;;;0.00;;
55254;SDS011;41118;44.634;11.182;2023-04-03T16:00:51;0.30;;;0.00;;
55254;SDS011;41118;44.634;11.182;2023-04-03T16:03:18;0.93;;;0.00;;
55254;SDS011;41118;44.634;11.182;2023-04-03T16:05:45;1.45;;;0.00;;
55254;SDS011;41118;44.634;11.182;2023-04-03T16:08:11;0.20;;;0.00;;
55254;SDS011;41118;44.634;11.182;2023-04-03T16:10:37;1.20;;;0.00;;
55254;SDS011;41118;44.634;11.182;2023-04-03T16:13:04;0.30;;;0.00;;
55254;SDS011;41118;44.634;11.182;2023-04-03T16:15:30;0.10;;;0.00;;